Impacts TAF Board
For situational awareness. Not to be used for flight planning purposes.
IDs:

KPEQ - Pecos Muni, TX, US

Issued at 2005 UTC 01 Feb 2023
Updated at 2145 UTC 01 Feb 2023
Potential Impact None Slight Moderate High
Time2135Z 01/22Z 01/23Z 02/00Z 02/01Z 02/02Z 02/03Z 02/04Z 02/05Z 02/06Z 02/07Z 02/08Z 02/09Z 02/10Z>>
Type OBS PRVL PRVL PRVL PRVL PRVL PRVL PRVL PRVL PRVL PRVL PRVL PRVL PRVL
VIS 4 >6 >6 >6 >6 >6 >6 >6 >6 >6 >6 >6 >6 >6
CIG 13 15 15 15 15 9 9 9 9 9 9 9 9 9
Cover OVC OVC OVC OVC OVC OVC OVC OVC OVC OVC OVC OVC OVC OVC
FltCat MVFR MVFR MVFR MVFR MVFR IFR IFR IFR IFR IFR IFR IFR IFR IFR
WX -SN -SN -SN -SN -SN -- -- -- -- -- -- -- -- --
WDir VRB 110 110 110 110 VRB VRB VRB VRB VRB VRB VRB VRB VRB
WSpd 0 6 6 6 6 4 4 4 4 4 4 4 4 4
WGst -- -- -- -- -- -- -- -- -- -- -- -- -- --
WSHgt -- -- -- -- -- -- -- -- -- -- -- -- -- --
WSDir -- -- -- -- -- -- -- -- -- -- -- -- -- --
WSSpd -- -- -- -- -- -- -- -- -- -- -- -- -- --
R09/27
XWnd VRB -1 -1 -1 -1 VRB VRB VRB VRB VRB VRB VRB VRB VRB
HWnd VRB 6 6 6 6 VRB VRB VRB VRB VRB VRB VRB VRB VRB
R14/32
XWnd VRB 4 4 4 4 VRB VRB VRB VRB VRB VRB VRB VRB VRB
HWnd VRB 5 5 5 5 VRB VRB VRB VRB VRB VRB VRB VRB VRB

NOTE: LAMP data beyond the time of the TAF data is denoted as LAMP in Type and colored magenta.

Raw TAF
KPEQ 012005Z 0120/0218 11006KT P6SM -SN OVC015
  FM020200 VRB04KT P6SM OVC009


Raw METAR
KPEQ 012135Z AUTO 00000KT 4SM -SN OVC013 M01/M03 A3022 RMK AO2 P0001 T10101031
KPEQ 012115Z AUTO 20006KT 7SM -SN OVC013 M01/M03 A3026 RMK AO2 T10061032
KPEQ 012055Z AUTO 10007KT 10SM BKN015 BKN021 M01/M03 A3017 RMK AO2 T10071033
KPEQ 012035Z AUTO 00000KT 10SM -RA SCT017 M01/M04 A3021 RMK AO2 T10091036
KPEQ 012015Z AUTO 00000KT 7SM -SN OVC015 M01/M04 A3023 RMK AO2 T10101040
KPEQ 011955Z AUTO 11006KT 10SM -SN OVC015 M01/M04 A3025 RMK AO2 T10101040
KPEQ 011935Z AUTO 11004KT 10SM -RA BKN015 OVC024 M01/M04 A3026 RMK AO2 T10091041
KPEQ 011915Z AUTO 05004KT 10SM BKN015 OVC022 M01/M04 A3027 RMK AO2 T10101044
KPEQ 011855Z AUTO 00000KT 7SM -RA BKN015 OVC024 M01/M04 A3029 RMK AO2 T10111044
KPEQ 011835Z AUTO 00000KT 10SM SCT015 OVC024 M01/M05 A3032 RMK AO2 T10131047

METAR Board
Radar Display
Forecast Discussion

For situational awareness. Not to be used for flight planning purposes.